createdAt,value
2018-04-25T00:00:47.920Z,0.00
2018-04-25T00:01:47.844Z,0.00
2018-04-25T00:02:47.768Z,0.00
2018-04-25T00:03:47.705Z,0.00
2018-04-25T00:04:47.620Z,0.00
2018-04-25T00:05:47.538Z,0.00
2018-04-25T00:06:47.463Z,0.00
2018-04-25T00:07:47.384Z,0.00
2018-04-25T00:08:47.309Z,0.00
2018-04-25T00:09:47.238Z,0.00
2018-04-25T00:10:47.182Z,0.00
2018-04-25T00:11:47.081Z,0.00
2018-04-25T00:12:47.045Z,0.00
2018-04-25T00:13:46.929Z,0.00
2018-04-25T00:14:46.856Z,0.00
2018-04-25T00:15:46.773Z,0.00
2018-04-25T00:16:46.697Z,0.00
2018-04-25T00:17:46.620Z,0.00
2018-04-25T00:18:46.546Z,0.00
2018-04-25T00:19:46.469Z,0.00
2018-04-25T00:20:46.390Z,0.00
2018-04-25T00:21:46.314Z,0.00
2018-04-25T00:22:46.235Z,0.00
2018-04-25T00:23:46.162Z,0.00
2018-04-25T00:24:46.095Z,0.00
2018-04-25T00:25:46.012Z,0.00
2018-04-25T00:26:45.934Z,0.00
2018-04-25T00:27:45.857Z,0.00
2018-04-25T00:28:45.777Z,0.00
2018-04-25T00:29:45.725Z,0.00
2018-04-25T00:30:45.625Z,0.00
2018-04-25T00:31:45.548Z,0.00
2018-04-25T00:32:45.580Z,0.00
2018-04-25T00:33:45.398Z,0.00
2018-04-25T00:34:45.317Z,0.00
2018-04-25T00:35:45.262Z,0.00
2018-04-25T00:36:45.163Z,0.00
2018-04-25T00:37:45.088Z,0.00
2018-04-25T00:38:45.010Z,0.00
2018-04-25T00:39:44.948Z,0.00
2018-04-25T00:40:44.880Z,0.00
2018-04-25T00:41:44.785Z,0.00
2018-04-25T00:42:44.704Z,0.00
2018-04-25T00:43:44.628Z,0.00
2018-04-25T00:44:44.550Z,0.00
2018-04-25T00:45:44.533Z,0.00
2018-04-25T00:46:44.419Z,0.00
2018-04-25T00:47:44.325Z,0.00
2018-04-25T00:48:44.244Z,0.00
2018-04-25T00:49:44.166Z,0.00
2018-04-25T00:50:44.090Z,0.00
2018-04-25T00:51:44.036Z,0.00
2018-04-25T00:52:43.961Z,0.00
2018-04-25T00:53:43.860Z,0.00
2018-04-25T00:54:43.784Z,0.00
2018-04-25T00:55:43.707Z,0.00
2018-04-25T00:56:43.631Z,0.00
2018-04-25T00:57:43.557Z,0.00
2018-04-25T00:58:43.488Z,0.00
2018-04-25T00:59:43.400Z,0.00
2018-04-25T01:00:43.326Z,0.00
2018-04-25T01:01:43.255Z,0.00
2018-04-25T01:02:43.169Z,0.00
2018-04-25T01:03:43.113Z,0.00
2018-04-25T01:04:43.019Z,0.00
2018-04-25T01:05:42.938Z,0.00
2018-04-25T01:46:01.960Z,0.00
2018-04-25T01:47:01.831Z,0.00
2018-04-25T01:49:05.715Z,0.00
2018-04-25T01:50:05.588Z,0.00
2018-04-25T01:52:09.478Z,0.00
2018-04-25T01:53:09.346Z,0.00
2018-04-25T01:55:13.186Z,0.00
2018-04-25T01:56:13.104Z,0.00
2018-04-25T01:58:16.989Z,0.00
2018-04-25T01:59:16.865Z,0.00
2018-04-25T02:01:20.700Z,0.00
2018-04-25T02:02:20.621Z,0.00
2018-04-25T02:04:24.503Z,0.00
2018-04-25T02:05:24.399Z,0.00
2018-04-25T02:07:28.266Z,0.00
2018-04-25T02:08:28.138Z,0.00
2018-04-25T02:10:20.996Z,0.00
2018-04-25T02:11:20.867Z,0.00
2018-04-25T02:12:20.779Z,0.00
2018-04-25T02:13:20.724Z,0.00
2018-04-25T02:14:20.619Z,0.00
2018-04-25T02:15:20.541Z,0.00
2018-04-25T02:16:20.465Z,0.00
2018-04-25T02:17:20.386Z,0.00
2018-04-25T02:18:20.310Z,0.00
2018-04-25T02:19:20.233Z,0.00
2018-04-25T02:20:20.161Z,0.00
2018-04-25T02:21:20.092Z,0.00
2018-04-25T02:22:20.002Z,0.00
2018-04-25T02:23:19.938Z,0.00
2018-04-25T02:24:19.845Z,0.00
2018-04-25T02:25:19.770Z,0.00
2018-04-25T02:26:19.699Z,0.00
2018-04-25T02:27:19.690Z,0.00
2018-04-25T02:28:19.553Z,0.00
2018-04-25T02:29:19.464Z,0.00
2018-04-25T02:30:19.386Z,0.00
2018-04-25T02:31:19.310Z,0.00
2018-04-25T02:32:19.230Z,0.00
2018-04-25T02:33:19.157Z,0.00
2018-04-25T02:34:19.084Z,0.00
2018-04-25T02:35:19.001Z,0.00
2018-04-25T02:36:18.923Z,0.00
2018-04-25T02:37:18.862Z,0.00
2018-04-25T02:38:18.777Z,0.00
2018-04-25T02:39:18.699Z,0.00
2018-04-25T02:40:18.615Z,0.00
2018-04-25T02:41:18.545Z,0.00
2018-04-25T02:42:18.479Z,0.00
2018-04-25T02:43:18.403Z,0.00
2018-04-25T02:44:18.306Z,0.00
2018-04-25T02:45:18.228Z,0.00
2018-04-25T02:46:18.153Z,0.00
2018-04-25T02:47:18.076Z,0.00
2018-04-25T02:48:17.999Z,0.00
2018-04-25T02:49:17.923Z,0.00
2018-04-25T02:50:17.845Z,0.00
2018-04-25T02:51:17.768Z,0.00
2018-04-25T02:52:17.700Z,0.00
2018-04-25T02:53:17.612Z,0.00
2018-04-25T02:54:17.542Z,0.00
2018-04-25T02:55:17.471Z,0.00
2018-04-25T02:56:17.380Z,0.00
2018-04-25T02:57:17.304Z,0.00
2018-04-25T02:58:17.320Z,0.00
2018-04-25T02:59:17.161Z,0.00
2018-04-25T03:00:17.074Z,0.00
2018-04-25T03:01:16.995Z,0.00
2018-04-25T03:02:16.921Z,0.00
2018-04-25T03:03:16.843Z,0.00
2018-04-25T03:04:16.764Z,0.00
2018-04-25T03:05:16.688Z,0.00
2018-04-25T03:06:16.609Z,0.00
2018-04-25T03:07:16.533Z,0.00
2018-04-25T03:08:16.454Z,0.00
2018-04-25T03:09:16.394Z,0.00
2018-04-25T03:10:16.299Z,0.00
2018-04-25T03:11:16.223Z,0.00
2018-04-25T03:12:16.147Z,0.00
2018-04-25T03:13:16.066Z,0.00
2018-04-25T03:14:15.990Z,0.00
2018-04-25T03:15:15.913Z,0.00
2018-04-25T03:16:15.856Z,0.00
2018-04-25T03:17:15.756Z,0.00
2018-04-25T03:18:15.680Z,0.00
2018-04-25T03:19:15.603Z,0.00
2018-04-25T03:20:15.524Z,0.00
2018-04-25T03:21:15.447Z,0.00
2018-04-25T03:22:15.370Z,0.00
2018-04-25T03:23:15.301Z,0.00
2018-04-25T03:24:15.214Z,0.00
2018-04-25T03:25:15.138Z,0.00
2018-04-25T03:26:15.063Z,0.00
2018-04-25T03:27:14.996Z,0.00
2018-04-25T03:28:14.918Z,0.00
2018-04-25T03:29:14.830Z,0.00
2018-04-25T03:30:14.752Z,0.00
2018-04-25T03:31:14.677Z,0.00
2018-04-25T03:32:14.599Z,0.00
2018-04-25T03:33:14.518Z,0.00
2018-04-25T03:34:14.450Z,0.00
2018-04-25T03:35:14.364Z,0.00
2018-04-25T03:36:14.289Z,0.00
2018-04-25T03:37:14.208Z,4.00
2018-04-25T03:38:14.134Z,4.00
2018-04-25T03:39:14.058Z,0.00
2018-04-25T03:40:13.977Z,4.00
2018-04-25T03:41:13.900Z,4.00
2018-04-25T03:42:13.831Z,4.00
2018-04-25T03:43:13.746Z,8.00
2018-04-25T03:44:13.669Z,8.00
2018-04-25T03:45:13.591Z,12.00
2018-04-25T03:46:13.536Z,12.00
2018-04-25T03:47:13.436Z,12.00
2018-04-25T03:48:13.359Z,12.00
2018-04-25T03:49:13.280Z,16.00
2018-04-25T03:50:13.223Z,20.00
2018-04-25T03:51:13.131Z,20.00
2018-04-25T03:52:13.060Z,24.00
2018-04-25T03:53:12.972Z,28.00
2018-04-25T03:54:12.894Z,32.00
2018-04-25T03:55:12.817Z,36.00
2018-04-25T03:56:12.740Z,40.00
2018-04-25T03:57:12.671Z,44.00
2018-04-25T03:58:12.586Z,48.00
2018-04-25T03:59:12.593Z,52.00
2018-04-25T04:00:12.441Z,56.00
2018-04-25T04:01:12.377Z,64.00
2018-04-25T04:02:12.280Z,72.00
2018-04-25T04:03:12.198Z,76.00
2018-04-25T04:04:12.120Z,88.00
2018-04-25T04:05:12.045Z,92.00
2018-04-25T04:06:11.982Z,100.00
2018-04-25T04:07:11.962Z,112.00
2018-04-25T04:08:11.824Z,120.00
2018-04-25T04:09:11.747Z,132.00
2018-04-25T04:10:11.655Z,152.00
2018-04-25T04:11:11.577Z,172.00
2018-04-25T04:12:11.501Z,188.00
2018-04-25T04:13:11.423Z,200.00
2018-04-25T04:14:11.346Z,216.00
2018-04-25T04:15:11.267Z,228.00
2018-04-25T04:16:11.197Z,248.00
2018-04-25T04:17:11.111Z,264.00
2018-04-25T04:18:11.039Z,280.00
2018-04-25T04:19:10.967Z,296.00
2018-04-25T04:20:10.880Z,316.00
2018-04-25T04:21:10.802Z,332.00
2018-04-25T04:22:10.730Z,348.00
2018-04-25T04:23:10.646Z,360.00
2018-04-25T04:24:10.567Z,376.00
2018-04-25T04:25:10.508Z,388.00
2018-04-25T04:26:10.419Z,404.00
2018-04-25T04:27:10.338Z,424.00
2018-04-25T04:28:10.279Z,444.00
2018-04-25T04:29:10.180Z,464.00
2018-04-25T04:30:10.123Z,484.00
2018-04-25T04:31:10.029Z,500.00
2018-04-25T04:32:09.950Z,520.00
2018-04-25T04:33:09.871Z,540.00
2018-04-25T04:34:09.794Z,564.00
2018-04-25T04:35:09.770Z,584.00
2018-04-25T04:36:09.664Z,608.00
2018-04-25T04:37:09.561Z,632.00
2018-04-25T04:38:09.486Z,648.00
2018-04-25T04:39:09.406Z,672.00
2018-04-25T04:40:09.329Z,696.00
2018-04-25T04:41:09.253Z,720.00
2018-04-25T04:42:09.174Z,744.00
2018-04-25T04:43:09.158Z,764.00
2018-04-25T04:44:09.018Z,800.00
2018-04-25T04:45:08.943Z,840.00
2018-04-25T04:46:08.865Z,852.00
2018-04-25T04:47:08.786Z,864.00
2018-04-25T04:48:08.714Z,884.00
2018-04-25T04:49:08.633Z,904.00
2018-04-25T04:50:08.554Z,900.00
2018-04-25T04:51:08.479Z,936.00
2018-04-25T04:52:08.399Z,956.00
2018-04-25T04:53:08.324Z,972.00
2018-04-25T04:54:08.244Z,1008.00
2018-04-25T04:55:08.167Z,1024.00
2018-04-25T04:56:08.089Z,1036.00
2018-04-25T04:57:08.013Z,1040.00
2018-04-25T04:58:07.937Z,1060.00
2018-04-25T04:59:07.857Z,1112.00
2018-04-25T05:00:07.780Z,1132.00
2018-04-25T05:01:07.704Z,1148.00
2018-04-25T05:02:07.626Z,1172.00
2018-04-25T05:03:07.548Z,1184.00
2018-04-25T05:04:07.489Z,1216.00
2018-04-25T05:05:07.392Z,1236.00
2018-04-25T05:06:07.314Z,1264.00
2018-04-25T05:07:07.239Z,1280.00
2018-04-25T05:08:07.163Z,1276.00
2018-04-25T05:09:07.083Z,1288.00
2018-04-25T05:10:07.011Z,1296.00
2018-04-25T05:11:06.928Z,1356.00
2018-04-25T05:12:06.853Z,1388.00
2018-04-25T05:13:06.858Z,1408.00
2018-04-25T05:14:06.696Z,1444.00
2018-04-25T05:15:06.618Z,1456.00
2018-04-25T05:16:06.553Z,1472.00
2018-04-25T05:17:06.513Z,1476.00
2018-04-25T05:18:06.389Z,1416.00
2018-04-25T05:19:06.311Z,1532.00
2018-04-25T05:20:06.234Z,1556.00
2018-04-25T05:21:06.170Z,1572.00
2018-04-25T05:22:06.079Z,1432.00
2018-04-25T05:23:06.005Z,1468.00
2018-04-25T05:24:05.925Z,1512.00
2018-04-25T05:25:05.849Z,1528.00
2018-04-25T05:26:05.792Z,1532.00
2018-04-25T05:27:05.692Z,1588.00
2018-04-25T05:28:05.692Z,1612.00
2018-04-25T05:29:05.543Z,1568.00
2018-04-25T05:30:05.461Z,1680.00
2018-04-25T05:31:05.384Z,1612.00
2018-04-25T05:32:05.356Z,1592.00
2018-04-25T05:33:05.240Z,1688.00
2018-04-25T05:34:05.957Z,1664.00
2018-04-25T05:35:05.079Z,1640.00
2018-04-25T05:36:05.001Z,1664.00
2018-04-25T05:37:04.942Z,1860.00
2018-04-25T05:38:04.848Z,1868.00
2018-04-25T05:39:04.781Z,1800.00
2018-04-25T05:40:04.694Z,1712.00
2018-04-25T05:41:04.626Z,1660.00
2018-04-25T05:42:04.540Z,1596.00
2018-04-25T05:43:04.465Z,1696.00
2018-04-25T05:44:04.388Z,2064.00
2018-04-25T05:45:04.310Z,2108.00
2018-04-25T05:46:04.357Z,2124.00
2018-04-25T05:47:04.160Z,2124.00
2018-04-25T05:48:04.106Z,2140.00
2018-04-25T05:49:04.029Z,2144.00
2018-04-25T05:50:03.942Z,2156.00
2018-04-25T05:51:03.852Z,2004.00
2018-04-25T05:52:03.774Z,2168.00
2018-04-25T05:53:03.699Z,2168.00
2018-04-25T05:54:03.621Z,2176.00
2018-04-25T05:55:03.545Z,2200.00
2018-04-25T05:56:03.469Z,2212.00
2018-04-25T05:57:03.393Z,2232.00
2018-04-25T05:58:03.316Z,2196.00
2018-04-25T05:59:03.241Z,2028.00
2018-04-25T06:00:03.164Z,2024.00
2018-04-25T06:01:03.090Z,2108.00
2018-04-25T06:02:03.009Z,2316.00
2018-04-25T06:03:02.934Z,2336.00
2018-04-25T06:04:02.861Z,2352.00
2018-04-25T06:05:02.779Z,2364.00
2018-04-25T06:06:02.709Z,2376.00
2018-04-25T06:07:02.652Z,2380.00
2018-04-25T06:08:02.557Z,2392.00
2018-04-25T06:09:02.476Z,2404.00
2018-04-25T06:10:02.434Z,2408.00
2018-04-25T06:11:02.330Z,2428.00
2018-04-25T06:12:02.248Z,2332.00
2018-04-25T06:13:02.186Z,2188.00
2018-04-25T06:14:02.100Z,2092.00
2018-04-25T06:15:02.021Z,2100.00
2018-04-25T06:16:01.986Z,2272.00
2018-04-25T06:17:01.867Z,2288.00
2018-04-25T06:18:01.794Z,2596.00
2018-04-25T06:19:01.725Z,2572.00
2018-04-25T06:20:01.642Z,2452.00
2018-04-25T06:21:01.564Z,2400.00
2018-04-25T06:22:01.490Z,2568.00
2018-04-25T06:23:01.415Z,2412.00
2018-04-25T06:24:01.337Z,2436.00
2018-04-25T06:25:01.262Z,2584.00
2018-04-25T06:26:01.185Z,2552.00
2018-04-25T06:27:01.113Z,1936.00
2018-04-25T06:28:01.037Z,2552.00
2018-04-25T06:29:00.961Z,2644.00
2018-04-25T06:30:00.887Z,2668.00
2018-04-25T06:31:00.823Z,2704.00
2018-04-25T06:32:00.732Z,2680.00
2018-04-25T06:33:00.657Z,2688.00
2018-04-25T06:34:00.581Z,2620.00
2018-04-25T06:35:00.506Z,2720.00
2018-04-25T06:36:00.434Z,2712.00
2018-04-25T06:37:00.352Z,2740.00
2018-04-25T06:38:00.279Z,2772.00
2018-04-25T06:39:00.205Z,2328.00
2018-04-25T06:40:00.134Z,2592.00
2018-04-25T06:41:00.083Z,2520.00
2018-04-25T06:41:59.984Z,2356.00
2018-04-25T06:42:59.902Z,2448.00
2018-04-25T06:43:59.826Z,2416.00
2018-04-25T06:44:59.805Z,2176.00
2018-04-25T06:45:59.679Z,2308.00
2018-04-25T06:46:59.600Z,1808.00
2018-04-25T06:47:59.523Z,2608.00
2018-04-25T06:48:59.447Z,2632.00
2018-04-25T06:49:59.374Z,2692.00
2018-04-25T06:50:59.301Z,2676.00
2018-04-25T06:51:59.222Z,2808.00
2018-04-25T06:52:59.147Z,2892.00
2018-04-25T06:53:59.073Z,2944.00
2018-04-25T06:54:58.999Z,2892.00
2018-04-25T06:55:58.951Z,2980.00
2018-04-25T06:56:58.848Z,2964.00
2018-04-25T06:57:58.772Z,2948.00
2018-04-25T06:58:58.696Z,2908.00
2018-04-25T06:59:58.638Z,2900.00
2018-04-25T07:00:58.577Z,2896.00
2018-04-25T07:01:58.483Z,2876.00
2018-04-25T07:02:58.398Z,2836.00
2018-04-25T07:03:58.358Z,2696.00
2018-04-25T07:04:58.247Z,2704.00
2018-04-25T07:05:58.174Z,2700.00
2018-04-25T07:06:58.094Z,2756.00
2018-04-25T07:07:58.105Z,2676.00
2018-04-25T07:08:57.949Z,2824.00
2018-04-25T07:09:57.870Z,2864.00
2018-04-25T07:10:57.865Z,2924.00
2018-04-25T07:11:57.723Z,2948.00
2018-04-25T07:12:57.682Z,2896.00
2018-04-25T07:13:57.572Z,2892.00
2018-04-25T07:14:57.510Z,2956.00
2018-04-25T07:15:57.435Z,2992.00
2018-04-25T07:16:57.348Z,2988.00
2018-04-25T07:17:57.278Z,2996.00
2018-04-25T07:18:57.254Z,3000.00
2018-04-25T07:19:57.126Z,3044.00
2018-04-25T07:20:57.049Z,3060.00
2018-04-25T07:21:56.972Z,3068.00
2018-04-25T07:22:56.905Z,3100.00
2018-04-25T07:23:56.887Z,3104.00
2018-04-25T07:24:56.754Z,3028.00
2018-04-25T07:25:56.685Z,3004.00
2018-04-25T07:26:56.601Z,3024.00
2018-04-25T07:27:56.525Z,3012.00
2018-04-25T07:28:56.460Z,3048.00
2018-04-25T07:29:56.376Z,3016.00
2018-04-25T07:30:56.385Z,3044.00
2018-04-25T07:31:56.244Z,3016.00
2018-04-25T07:32:56.151Z,3056.00
2018-04-25T07:33:56.079Z,3056.00
2018-04-25T07:34:56.005Z,3156.00
2018-04-25T07:35:55.933Z,3152.00
2018-04-25T07:36:55.860Z,3124.00
2018-04-25T07:37:55.784Z,3004.00
2018-04-25T07:38:55.713Z,3068.00
2018-04-25T07:39:55.636Z,3048.00
2018-04-25T07:40:55.563Z,3060.00
2018-04-25T07:41:55.529Z,2908.00
2018-04-25T07:42:55.993Z,2868.00
2018-04-25T07:43:55.340Z,2908.00
2018-04-25T07:44:55.267Z,3036.00
2018-04-25T07:45:55.205Z,3096.00
2018-04-25T07:46:55.116Z,3136.00
2018-04-25T07:47:55.066Z,3080.00
2018-04-25T07:48:54.969Z,3092.00
2018-04-25T07:49:54.909Z,3096.00
2018-04-25T07:50:54.823Z,3100.00
2018-04-25T07:51:54.748Z,3140.00
2018-04-25T07:52:54.675Z,3168.00
2018-04-25T07:53:54.601Z,3124.00
2018-04-25T07:54:54.528Z,3184.00
2018-04-25T07:55:54.457Z,3252.00
2018-04-25T07:56:54.379Z,3280.00
2018-04-25T07:57:54.306Z,3292.00
2018-04-25T07:58:54.247Z,3304.00
2018-04-25T07:59:54.175Z,3300.00
2018-04-25T08:00:54.086Z,3292.00
2018-04-25T08:01:54.024Z,3240.00
2018-04-25T08:02:53.939Z,3248.00
2018-04-25T08:03:53.870Z,3276.00
2018-04-25T08:04:53.792Z,3304.00
2018-04-25T08:05:53.729Z,3300.00
2018-04-25T08:06:54.659Z,3292.00
2018-04-25T08:07:53.574Z,3316.00
2018-04-25T08:08:53.513Z,3316.00
2018-04-25T08:09:53.426Z,3320.00
2018-04-25T08:10:53.355Z,3316.00
2018-04-25T08:11:53.284Z,3280.00
2018-04-25T08:12:53.207Z,3276.00
2018-04-25T08:13:53.135Z,3360.00
2018-04-25T08:14:53.064Z,3348.00
2018-04-25T08:15:52.989Z,3284.00
2018-04-25T08:16:52.915Z,3268.00
2018-04-25T08:17:52.906Z,3344.00
2018-04-25T08:18:52.772Z,3316.00
2018-04-25T08:19:52.696Z,3336.00
2018-04-25T08:20:52.652Z,3328.00
2018-04-25T08:21:52.553Z,3344.00
2018-04-25T08:22:52.475Z,3324.00
2018-04-25T08:23:52.463Z,3344.00
2018-04-25T08:24:52.329Z,3352.00
2018-04-25T08:25:52.274Z,3380.00
2018-04-25T08:26:52.183Z,3380.00
2018-04-25T08:27:52.109Z,3448.00
2018-04-25T08:28:52.036Z,3464.00
2018-04-25T08:29:51.965Z,3428.00
2018-04-25T08:30:51.891Z,3424.00
2018-04-25T08:31:51.815Z,3472.00
2018-04-25T08:32:51.744Z,3484.00
2018-04-25T08:33:51.671Z,3480.00
2018-04-25T08:34:51.611Z,3484.00
2018-04-25T08:35:51.543Z,3496.00
2018-04-25T08:36:51.452Z,3512.00
2018-04-25T08:37:51.386Z,3592.00
2018-04-25T08:38:51.309Z,3616.00
2018-04-25T08:39:51.237Z,3636.00
2018-04-25T08:40:51.166Z,3596.00
2018-04-25T08:41:51.090Z,3640.00
2018-04-25T08:42:51.017Z,3680.00
2018-04-25T08:43:50.943Z,3676.00
2018-04-25T08:44:50.956Z,3656.00
2018-04-25T08:45:50.804Z,3624.00
2018-04-25T08:46:50.723Z,3620.00
2018-04-25T08:47:50.653Z,3616.00
2018-04-25T08:48:50.590Z,3600.00
2018-04-25T08:49:50.509Z,3556.00
2018-04-25T08:50:50.437Z,3592.00
2018-04-25T08:51:50.359Z,3724.00
2018-04-25T08:52:50.288Z,3836.00
2018-04-25T08:53:50.217Z,3796.00
2018-04-25T08:54:50.146Z,3740.00
2018-04-25T08:55:50.076Z,3744.00
2018-04-25T08:56:50.003Z,3704.00
2018-04-25T08:57:49.941Z,3740.00
2018-04-25T08:58:49.857Z,3780.00
2018-04-25T08:59:49.782Z,3968.00
2018-04-25T09:00:49.712Z,4248.00
2018-04-25T09:01:49.635Z,4300.00
2018-04-25T09:02:49.565Z,4572.00
2018-04-25T09:03:49.497Z,4340.00
2018-04-25T09:04:49.419Z,4484.00
2018-04-25T09:05:49.355Z,4608.00
2018-04-25T09:06:49.275Z,4372.00
2018-04-25T09:07:49.210Z,4224.00
2018-04-25T09:08:49.132Z,4124.00
2018-04-25T09:09:49.061Z,4088.00
2018-04-25T09:10:48.986Z,4052.00
2018-04-25T09:11:48.913Z,4060.00
2018-04-25T09:12:48.842Z,4080.00
2018-04-25T09:13:48.770Z,4016.00
2018-04-25T09:14:48.698Z,3980.00
2018-04-25T09:15:48.623Z,3948.00
2018-04-25T09:16:48.553Z,3920.00
2018-04-25T09:17:48.482Z,3912.00
2018-04-25T09:18:48.412Z,3856.00
2018-04-25T09:19:48.340Z,3804.00
2018-04-25T09:20:48.274Z,3780.00
2018-04-25T09:21:48.194Z,3740.00
2018-04-25T09:22:48.126Z,3728.00
2018-04-25T09:23:48.052Z,3752.00
2018-04-25T09:24:47.978Z,3752.00
2018-04-25T09:25:47.906Z,3776.00
2018-04-25T09:26:47.856Z,3744.00
2018-04-25T09:27:47.765Z,3760.00
2018-04-25T09:28:47.689Z,3756.00
2018-04-25T09:29:47.628Z,3736.00
2018-04-25T09:30:47.547Z,3732.00
2018-04-25T09:31:47.473Z,3744.00
2018-04-25T09:32:47.404Z,3728.00
2018-04-25T09:33:47.331Z,3696.00
2018-04-25T09:34:47.257Z,3656.00
2018-04-25T09:35:47.185Z,3684.00
2018-04-25T09:36:47.120Z,3728.00
2018-04-25T09:37:47.045Z,3776.00
2018-04-25T09:38:46.974Z,3808.00
2018-04-25T09:39:46.898Z,3840.00
2018-04-25T09:40:46.827Z,3844.00
2018-04-25T09:41:46.781Z,3884.00
2018-04-25T09:42:46.683Z,3912.00
2018-04-25T09:43:46.612Z,3968.00
2018-04-25T09:44:46.540Z,4032.00
2018-04-25T09:45:46.467Z,4088.00
2018-04-25T09:46:46.411Z,4176.00
2018-04-25T09:47:46.325Z,4444.00
2018-04-25T09:48:46.257Z,4376.00
2018-04-25T09:49:46.183Z,4448.00
2018-04-25T09:50:46.118Z,4732.00
2018-04-25T09:51:46.082Z,5284.00
2018-04-25T09:52:45.967Z,5556.00
2018-04-25T09:53:45.896Z,4940.00
2018-04-25T09:54:45.825Z,5024.00
2018-04-25T09:55:45.752Z,3876.00
2018-04-25T09:56:45.679Z,4772.00
2018-04-25T09:57:45.611Z,5212.00
2018-04-25T09:58:45.536Z,5756.00
2018-04-25T09:59:45.463Z,5484.00
2018-04-25T10:00:45.391Z,5336.00
2018-04-25T10:01:45.332Z,5756.00
2018-04-25T10:02:45.256Z,6332.00
2018-04-25T10:03:45.181Z,7424.00
2018-04-25T10:04:45.107Z,7468.00
2018-04-25T10:05:45.035Z,5872.00
2018-04-25T10:06:45.010Z,5172.00
2018-04-25T10:07:44.894Z,5316.00
2018-04-25T10:08:44.823Z,7564.00
2018-04-25T10:09:44.753Z,7260.00
2018-04-25T10:10:44.680Z,6304.00
2018-04-25T10:11:44.621Z,6900.00
2018-04-25T10:12:44.542Z,6932.00
2018-04-25T10:13:44.468Z,6156.00
2018-04-25T10:14:44.400Z,5732.00
2018-04-25T10:15:44.326Z,6228.00
2018-04-25T10:16:44.255Z,6436.00
2018-04-25T10:17:44.185Z,6828.00
2018-04-25T10:18:44.117Z,5568.00
2018-04-25T10:19:44.042Z,4108.00
2018-04-25T10:20:43.984Z,5216.00
2018-04-25T10:21:43.902Z,6540.00
2018-04-25T10:22:43.833Z,7012.00
2018-04-25T10:23:43.761Z,5332.00
2018-04-25T10:24:43.692Z,5232.00
2018-04-25T10:25:43.670Z,4964.00
2018-04-25T10:26:43.551Z,6256.00
2018-04-25T10:27:43.476Z,6440.00
2018-04-25T10:28:43.406Z,8172.00
2018-04-25T10:29:43.339Z,7788.00
2018-04-25T10:30:43.282Z,5260.00
2018-04-25T10:31:43.199Z,6180.00
2018-04-25T10:32:43.126Z,6964.00
2018-04-25T10:33:43.053Z,5864.00
2018-04-25T10:34:42.985Z,4388.00
2018-04-25T10:35:42.931Z,3308.00
2018-04-25T10:36:42.868Z,3644.00
2018-04-25T10:37:42.777Z,4768.00
2018-04-25T10:38:42.738Z,5556.00
2018-04-25T10:39:42.631Z,8232.00
2018-04-25T10:40:42.582Z,6536.00
2018-04-25T10:41:42.492Z,5796.00
2018-04-25T10:42:42.420Z,7700.00
2018-04-25T10:43:42.349Z,8272.00
2018-04-25T10:44:42.290Z,7624.00
2018-04-25T10:45:42.230Z,7944.00
2018-04-25T10:46:42.141Z,7132.00
2018-04-25T10:47:42.070Z,5512.00
2018-04-25T10:48:42.014Z,5832.00
2018-04-25T10:49:41.930Z,5652.00
2018-04-25T10:50:41.860Z,6916.00
2018-04-25T10:51:41.792Z,6808.00
2018-04-25T10:52:41.718Z,7396.00
2018-04-25T10:53:41.649Z,7752.00
2018-04-25T10:54:41.579Z,8800.00
2018-04-25T10:55:41.511Z,9228.00
2018-04-25T10:56:41.443Z,7252.00
2018-04-25T10:57:41.369Z,7332.00
2018-04-25T10:58:41.299Z,6640.00
2018-04-25T10:59:41.228Z,6540.00
2018-04-25T11:00:41.206Z,4956.00
2018-04-25T11:01:41.098Z,4552.00
2018-04-25T11:02:41.019Z,5060.00
2018-04-25T11:03:40.948Z,6164.00
2018-04-25T11:04:40.882Z,9004.00
2018-04-25T11:05:40.812Z,9588.00
2018-04-25T11:06:40.742Z,8120.00
2018-04-25T11:07:40.667Z,10304.00
2018-04-25T11:08:40.599Z,7004.00
2018-04-25T11:09:40.535Z,8924.00
2018-04-25T11:10:40.461Z,8608.00
2018-04-25T11:11:40.390Z,6916.00
2018-04-25T11:12:40.320Z,8024.00
2018-04-25T11:13:40.252Z,9204.00
2018-04-25T11:14:40.187Z,8720.00
2018-04-25T11:15:40.111Z,10088.00
2018-04-25T11:16:40.052Z,10056.00
2018-04-25T11:17:39.972Z,10092.00
2018-04-25T11:18:39.902Z,10600.00
2018-04-25T11:19:39.832Z,9116.00
2018-04-25T11:20:39.768Z,8796.00
2018-04-25T11:21:39.694Z,6452.00
2018-04-25T11:22:39.624Z,4584.00
2018-04-25T11:23:39.553Z,4036.00
2018-04-25T11:24:39.486Z,3692.00
2018-04-25T11:25:39.418Z,3392.00
2018-04-25T11:26:39.384Z,2860.00
2018-04-25T11:27:39.280Z,2428.00
2018-04-25T11:28:39.209Z,2116.00
2018-04-25T11:29:39.140Z,2056.00
2018-04-25T11:30:39.070Z,2224.00
2018-04-25T11:31:39.004Z,2440.00
2018-04-25T11:32:38.930Z,2716.00
2018-04-25T11:33:38.879Z,3212.00
2018-04-25T11:34:38.796Z,2820.00
2018-04-25T11:35:38.734Z,3776.00
2018-04-25T11:36:38.672Z,4796.00
2018-04-25T11:37:38.582Z,7540.00
2018-04-25T11:38:38.519Z,8936.00
2018-04-25T11:39:38.446Z,7152.00
2018-04-25T11:40:38.376Z,4560.00
2018-04-25T11:41:38.303Z,3896.00
2018-04-25T11:42:38.235Z,3276.00
2018-04-25T11:43:38.162Z,3300.00
2018-04-25T11:44:38.106Z,3524.00
2018-04-25T11:45:38.025Z,4492.00
2018-04-25T11:46:37.958Z,3928.00
2018-04-25T11:47:37.887Z,3580.00
2018-04-25T11:48:37.818Z,3696.00
2018-04-25T11:49:37.745Z,4812.00
2018-04-25T11:50:37.681Z,6104.00
2018-04-25T11:51:37.627Z,4188.00
2018-04-25T11:52:37.544Z,3752.00
2018-04-25T11:53:37.467Z,3696.00
2018-04-25T11:54:37.398Z,4168.00
2018-04-25T11:55:37.329Z,5280.00
2018-04-25T11:56:37.258Z,6176.00
2018-04-25T11:57:37.189Z,7860.00
2018-04-25T11:58:37.117Z,8744.00
2018-04-25T11:59:37.054Z,13724.00
2018-04-25T12:00:36.980Z,12864.00
2018-04-25T12:01:36.911Z,11768.00
2018-04-25T12:02:36.843Z,11952.00
2018-04-25T12:03:36.770Z,11960.00
2018-04-25T12:04:36.702Z,13372.00
2018-04-25T12:05:36.631Z,12292.00
2018-04-25T12:06:36.593Z,8816.00
2018-04-25T12:07:36.500Z,8432.00
2018-04-25T12:08:36.425Z,11140.00
2018-04-25T12:09:36.356Z,11812.00
2018-04-25T12:10:36.286Z,12432.00
2018-04-25T12:11:36.224Z,12252.00
2018-04-25T12:12:36.151Z,11668.00
2018-04-25T12:13:36.083Z,11572.00
2018-04-25T12:14:36.018Z,8060.00
2018-04-25T12:15:35.947Z,10624.00
2018-04-25T12:16:35.888Z,8432.00
2018-04-25T12:17:35.812Z,6968.00
2018-04-25T12:18:35.819Z,10744.00
2018-04-25T12:19:35.673Z,11372.00
2018-04-25T12:20:35.605Z,12512.00
2018-04-25T12:21:35.536Z,14244.00
2018-04-25T12:22:35.482Z,11920.00
2018-04-25T12:23:35.410Z,29792.00
2018-04-25T12:24:35.333Z,63488.00
2018-04-25T12:25:35.268Z,7004.00
2018-04-25T12:26:35.204Z,13820.00
2018-04-25T12:27:35.132Z,5172.00
2018-04-25T12:28:35.067Z,4572.00
2018-04-25T12:29:35.023Z,4148.00
2018-04-25T12:30:34.941Z,3668.00
2018-04-25T12:31:34.867Z,3224.00
2018-04-25T12:32:34.799Z,3140.00
2018-04-25T12:33:34.734Z,3372.00
2018-04-25T12:34:34.666Z,3784.00
2018-04-25T12:35:34.598Z,5264.00
2018-04-25T12:36:34.532Z,4220.00
2018-04-25T12:37:34.461Z,3884.00
2018-04-25T12:38:34.395Z,4136.00
2018-04-25T12:39:34.329Z,6680.00
2018-04-25T12:40:34.265Z,54976.00
2018-04-25T12:41:34.214Z,4304.00
2018-04-25T12:42:34.128Z,4616.00
2018-04-25T12:43:34.059Z,5264.00
2018-04-25T12:44:33.994Z,8936.00
2018-04-25T12:45:33.921Z,83584.00
2018-04-25T12:46:33.857Z,86688.00
2018-04-25T12:47:33.787Z,86720.00
2018-04-25T12:48:33.728Z,87360.00
2018-04-25T12:49:33.652Z,86784.00
2018-04-25T12:50:33.589Z,82720.00
2018-04-25T12:51:33.525Z,81376.00
2018-04-25T12:52:34.101Z,83904.00
2018-04-25T12:53:33.393Z,86176.00
2018-04-25T12:54:33.332Z,79680.00
2018-04-25T12:55:33.266Z,90560.00
2018-04-25T12:56:33.219Z,12020.00
2018-04-25T12:57:33.145Z,84288.00
2018-04-25T12:58:33.129Z,80640.00
2018-04-25T12:59:33.017Z,74368.00
2018-04-25T13:00:32.955Z,15472.00
2018-04-25T13:01:32.908Z,14100.00
2018-04-25T13:02:32.836Z,21472.00
2018-04-25T13:03:32.774Z,53024.00
2018-04-25T13:04:32.710Z,8756.00
2018-04-25T13:05:32.649Z,10340.00
2018-04-25T13:06:32.589Z,65856.00
2018-04-25T13:07:32.543Z,31296.00
2018-04-25T13:08:32.466Z,43200.00
2018-04-25T13:09:32.437Z,8456.00
2018-04-25T13:10:32.341Z,7968.00